Time;durP1;ratioP1;P1;durP2;ratioP2;P2;SDS_P1;SDS_P2;PMS_P1;PMS_P2;Temp;Humidity;BMP_temperature;BMP_pressure;BME280_temperature;BME280_humidity;BME280_pressure;Samples;Min_cycle;Max_cycle;Signal;HPM_P1;HPM_P2
2022/02/06 00:00:59;;;;;;;8.55;4.55;;;4.50;99.90;;;;;;2097680;28;20029;-71
2022/02/06 00:02:00;;;;;;;8.70;4.55;;;4.50;99.90;;;;;;2098227;28;20620;-72
2022/02/06 00:03:02;;;;;;;9.20;4.82;;;4.60;99.90;;;;;;2106443;28;20109;-72
2022/02/06 00:04:03;;;;;;;8.57;4.40;;;4.60;99.90;;;;;;2106578;28;20466;-72
2022/02/06 00:05:05;;;;;;;12.30;4.40;;;4.50;99.90;;;;;;2105765;28;20032;-70
2022/02/06 00:06:08;;;;;;;7.82;4.22;;;4.60;99.90;;;;;;2106380;28;20020;-70
2022/02/06 00:07:09;;;;;;;7.03;4.25;;;4.60;99.90;;;;;;2106545;28;20376;-73
2022/02/06 00:08:12;;;;;;;10.02;4.18;;;4.60;99.90;;;;;;2106398;28;20139;-72
2022/02/06 00:09:12;;;;;;;8.43;4.28;;;4.50;99.90;;;;;;2106166;28;20020;-72
2022/02/06 00:10:13;;;;;;;9.00;4.22;;;4.60;99.90;;;;;;2105940;28;20428;-72
2022/02/06 00:11:13;;;;;;;11.02;4.40;;;4.60;99.90;;;;;;2106086;28;20423;-71
2022/02/06 00:12:15;;;;;;;9.10;4.13;;;4.60;99.90;;;;;;2096972;28;20361;-71
2022/02/06 00:13:16;;;;;;;9.57;3.90;;;4.60;99.90;;;;;;2097365;28;20637;-73
2022/02/06 00:14:16;;;;;;;9.27;4.00;;;4.60;99.90;;;;;;2106433;28;20073;-73
2022/02/06 00:15:19;;;;;;;8.35;4.10;;;4.50;99.90;;;;;;2106314;28;20088;-71
2022/02/06 00:16:20;;;;;;;8.00;4.03;;;4.60;99.90;;;;;;2106013;28;20055;-72
2022/02/06 00:17:20;;;;;;;8.88;3.85;;;4.60;99.90;;;;;;2105667;28;20094;-72
2022/02/06 00:18:21;;;;;;;10.05;4.00;;;4.60;99.90;;;;;;2105812;28;20451;-72
2022/02/06 00:19:22;;;;;;;8.20;3.60;;;4.60;99.90;;;;;;2097148;28;20039;-71
2022/02/06 00:20:29;;;;;;;7.40;3.60;;;4.70;99.90;;;;;;2097714;28;20033;-73
2022/02/06 00:21:32;;;;;;;7.35;3.85;;;4.70;99.90;;;;;;2105469;28;20036;-72
2022/02/06 00:22:38;;;;;;;7.93;3.80;;;4.80;99.90;;;;;;2105483;28;20119;-72
2022/02/06 00:23:38;;;;;;;8.10;3.58;;;4.80;99.90;;;;;;2106668;28;20030;-72
2022/02/06 00:24:50;;;;;;;7.30;3.53;;;4.80;99.90;;;;;;2106530;28;20036;-72
2022/02/06 00:27:01;;;;;;;8.52;3.42;;;4.80;99.90;;;;;;2106516;28;20052;-72
2022/02/06 00:29:24;;;;;;;6.50;3.55;;;4.80;99.90;;;;;;2106112;28;20032;-74
2022/02/06 00:31:46;;;;;;;7.68;3.78;;;4.90;99.90;;;;;;2105089;28;20051;-70
2022/02/06 00:32:52;;;;;;;7.78;3.50;;;4.90;99.90;;;;;;2105475;28;20024;-71
2022/02/06 00:35:33;;;;;;;8.43;3.58;;;5.00;99.90;;;;;;2105761;28;20101;-72
2022/02/06 00:39:06;;;;;;;9.35;3.42;;;5.10;99.90;;;;;;2106071;28;20583;-73
2022/02/06 00:40:07;;;;;;;8.05;3.50;;;5.10;99.90;;;;;;2105984;28;20032;-73
2022/02/06 00:41:13;;;;;;;8.32;3.15;;;5.10;99.90;;;;;;2105403;28;20036;-72
2022/02/06 00:42:14;;;;;;;7.60;3.25;;;5.20;99.90;;;;;;2102030;28;20031;-74
2022/02/06 00:43:14;;;;;;;5.93;3.30;;;5.20;99.90;;;;;;2093340;28;20043;-74
2022/02/06 00:44:15;;;;;;;8.32;3.30;;;5.20;99.90;;;;;;2084941;28;20103;-70
2022/02/06 00:45:16;;;;;;;8.95;3.55;;;5.20;99.90;;;;;;2088588;28;20032;-70
2022/02/06 00:46:18;;;;;;;5.88;2.97;;;5.20;99.90;;;;;;2096493;28;20687;-70
2022/02/06 00:47:18;;;;;;;7.30;3.15;;;5.20;99.90;;;;;;2097694;28;20028;-71
2022/02/06 00:48:23;;;;;;;7.18;3.20;;;5.20;99.90;;;;;;2097531;28;20032;-69
2022/02/06 00:49:28;;;;;;;8.18;3.10;;;5.30;99.90;;;;;;2097076;28;20025;-69
2022/02/06 00:50:29;;;;;;;7.15;3.20;;;5.30;99.90;;;;;;2097483;28;20039;-69
2022/02/06 00:51:44;;;;;;;9.68;3.33;;;5.30;99.90;;;;;;2104781;28;20077;-69
2022/02/06 00:53:00;;;;;;;7.85;3.00;;;5.30;99.90;;;;;;2103203;28;20864;-70
2022/02/06 00:54:00;;;;;;;5.82;3.08;;;5.30;99.90;;;;;;2090742;28;20037;-70
2022/02/06 00:55:01;;;;;;;8.27;3.03;;;5.30;99.90;;;;;;2097047;28;20025;-69
2022/02/06 00:56:02;;;;;;;6.03;3.10;;;5.30;99.90;;;;;;2096544;28;20107;-70
2022/02/06 00:57:03;;;;;;;7.65;3.28;;;5.30;99.90;;;;;;2096887;28;20393;-69
2022/02/06 00:58:03;;;;;;;6.97;3.13;;;5.30;99.90;;;;;;2097488;28;20029;-70
2022/02/06 00:59:04;;;;;;;7.45;3.28;;;5.30;99.90;;;;;;2097279;28;20037;-71
2022/02/06 01:00:05;;;;;;;7.95;3.35;;;5.30;99.90;;;;;;2104874;28;20044;-71
2022/02/06 01:01:06;;;;;;;6.10;3.20;;;5.30;99.90;;;;;;2105501;28;20032;-71
2022/02/06 01:02:06;;;;;;;6.35;3.00;;;5.30;99.90;;;;;;2097570;28;20021;-71
2022/02/06 01:03:07;;;;;;;5.93;2.88;;;5.30;99.90;;;;;;2097756;28;20043;-71
2022/02/06 01:04:13;;;;;;;6.97;2.75;;;5.30;99.90;;;;;;2105099;28;20039;-70
2022/02/06 01:05:13;;;;;;;8.15;3.17;;;5.30;99.90;;;;;;2104616;28;20036;-70
2022/02/06 01:06:14;;;;;;;5.63;2.90;;;5.30;99.90;;;;;;2097084;28;20022;-70
2022/02/06 01:07:14;;;;;;;8.60;3.45;;;5.30;99.90;;;;;;2097886;28;20480;-69
2022/02/06 01:08:15;;;;;;;8.20;3.10;;;5.30;99.90;;;;;;2105036;28;20023;-68
2022/02/06 01:09:17;;;;;;;9.38;3.25;;;5.30;99.90;;;;;;2096830;28;20035;-69
2022/02/06 01:10:17;;;;;;;7.90;2.72;;;5.30;99.90;;;;;;2096768;28;20439;-70
2022/02/06 01:11:18;;;;;;;4.78;3.03;;;5.40;99.90;;;;;;2098003;28;20056;-70
2022/02/06 01:12:23;;;;;;;5.75;3.03;;;5.40;99.90;;;;;;2106097;28;20032;-71
2022/02/06 01:13:30;;;;;;;6.45;3.10;;;5.40;99.90;;;;;;2105980;28;20512;-70
2022/02/06 01:15:35;;;;;;;8.85;2.95;;;5.50;99.90;;;;;;2104444;28;20023;-68
2022/02/06 01:16:41;;;;;;;6.90;3.17;;;5.50;99.90;;;;;;2104970;28;20024;-68
2022/02/06 01:17:51;;;;;;;6.82;2.92;;;5.40;99.90;;;;;;2097629;28;20120;-66
2022/02/06 01:18:58;;;;;;;;;;;5.40;99.90;;;;;;2105286;28;20122;-68
2022/02/06 01:20:13;;;;;;;8.30;2.92;;;5.40;99.90;;;;;;2097255;28;19919;-67
2022/02/06 01:22:19;;;;;;;7.57;3.20;;;5.40;99.90;;;;;;2099557;28;20392;-71
2022/02/06 01:23:30;;;;;;;4.70;2.92;;;5.40;99.90;;;;;;2100544;28;20063;-71
2022/02/06 01:25:49;;;;;;;9.50;3.28;;;5.40;99.90;;;;;;2097124;28;20017;-70
2022/02/06 01:27:06;;;;;;;7.00;2.95;;;5.40;99.90;;;;;;2103162;28;20028;-72
2022/02/06 01:28:12;;;;;;;8.57;3.13;;;5.40;99.90;;;;;;2099094;28;20032;-72
2022/02/06 01:29:33;;;;;;;7.72;3.00;;;5.40;99.90;;;;;;2099534;28;20101;-71
2022/02/06 01:31:45;;;;;;;6.78;2.95;;;5.40;99.90;;;;;;2103134;28;20020;-72
2022/02/06 01:32:09;;;;;;;11.13;3.30;;;5.40;99.90;;;;;;2085583;28;20073;-72
2022/02/06 01:33:49;;;;;;;8.50;3.35;;;5.30;99.90;;;;;;2105407;28;20024;-71
2022/02/06 01:34:44;;;;;;;9.07;2.92;;;5.30;99.90;;;;;;2103698;28;20028;-72
2022/02/06 01:35:58;;;;;;;7.10;2.92;;;5.30;99.90;;;;;;2105470;28;20049;-72
2022/02/06 01:38:16;;;;;;;5.85;3.10;;;5.20;99.90;;;;;;2105757;28;20024;-72
2022/02/06 01:39:43;;;;;;;7.63;3.25;;;5.20;99.90;;;;;;2105786;28;20143;-72
2022/02/06 01:40:59;;;;;;;9.48;3.30;;;5.20;99.90;;;;;;2106404;28;20028;-71
2022/02/06 01:42:03;;;;;;;9.32;3.78;;;5.10;99.90;;;;;;2105177;28;20514;-72
2022/02/06 01:43:13;;;;;;;9.27;3.60;;;5.10;99.90;;;;;;2106000;28;20012;-72
2022/02/06 01:44:38;;;;;;;8.13;3.08;;;5.10;99.90;;;;;;2105772;28;20120;-74
2022/02/06 01:57:34;;;;;;;10.45;3.60;;;4.80;99.90;;;;;;2105530;28;20032;-73
2022/02/06 02:01:40;;;;;;;9.50;3.70;;;4.70;99.90;;;;;;2100106;28;20036;-73
2022/02/06 02:04:12;;;;;;;7.15;3.45;;;4.60;99.90;;;;;;2099810;28;20381;-73
2022/02/06 02:09:31;;;;;;;7.97;3.38;;;4.50;99.90;;;;;;2106660;28;20066;-71
2022/02/06 02:17:17;;;;;;;11.43;4.05;;;4.40;99.90;;;;;;2088868;28;20029;-74
2022/02/06 02:20:18;;;;;;;9.52;3.90;;;4.40;99.90;;;;;;2045302;29;20024;-74
2022/02/06 02:21:49;;;;;;;7.53;3.60;;;4.40;99.90;;;;;;2054672;28;20027;-72
2022/02/06 02:23:05;;;;;;;9.70;4.10;;;4.40;99.90;;;;;;2097970;28;20060;-72
2022/02/06 02:46:58;;;;;;;9.15;4.22;;;4.40;99.90;;;;;;2105833;28;20016;-71
2022/02/06 02:48:03;;;;;;;11.15;4.70;;;4.40;99.90;;;;;;2105228;28;20028;-73
2022/02/06 02:49:07;;;;;;;10.57;4.05;;;4.40;99.90;;;;;;2090086;28;20025;-72
2022/02/06 02:50:15;;;;;;;9.80;4.00;;;4.40;99.90;;;;;;2089747;28;20043;-72
2022/02/06 02:51:17;;;;;;;9.88;3.92;;;4.40;99.90;;;;;;2100502;28;20111;-72
2022/02/06 02:52:35;;;;;;;11.82;4.15;;;4.40;99.90;;;;;;2105466;28;20086;-72
2022/02/06 02:53:44;;;;;;;10.38;3.92;;;4.40;99.90;;;;;;2105547;28;20035;-72
2022/02/06 02:54:51;;;;;;;8.77;4.07;;;4.40;99.90;;;;;;2105209;28;20021;-72
2022/02/06 02:56:22;;;;;;;12.73;3.72;;;4.40;99.90;;;;;;2097391;28;20023;-72
2022/02/06 02:57:31;;;;;;;10.07;3.80;;;4.40;99.90;;;;;;2096545;28;20032;-73
2022/02/06 02:58:46;;;;;;;10.02;3.83;;;4.40;99.90;;;;;;2106849;28;20044;-71
2022/02/06 03:00:07;;;;;;;11.10;3.72;;;4.40;99.90;;;;;;2106722;28;20032;-72
2022/02/06 03:02:11;;;;;;;9.57;4.15;;;4.40;99.90;;;;;;2105971;28;20115;-71
2022/02/06 03:03:18;;;;;;;8.10;4.03;;;4.40;99.90;;;;;;2098162;28;20487;-72
2022/02/06 03:04:18;;;;;;;9.68;3.65;;;4.40;99.90;;;;;;2106293;28;20073;-75
2022/02/06 03:05:19;;;;;;;8.40;3.75;;;4.40;99.90;;;;;;2106259;28;20036;-72
2022/02/06 03:06:20;;;;;;;7.30;3.70;;;4.40;99.90;;;;;;2106311;28;20380;-71
2022/02/06 03:07:20;;;;;;;11.35;3.90;;;4.40;99.90;;;;;;2106575;28;20406;-72
2022/02/06 03:08:22;;;;;;;8.55;3.38;;;4.40;99.90;;;;;;2106442;28;20032;-71
2022/02/06 03:09:23;;;;;;;8.73;3.78;;;4.40;99.90;;;;;;2106825;28;20089;-70
2022/02/06 03:10:24;;;;;;;11.65;3.95;;;4.40;99.90;;;;;;2106815;28;20012;-72
2022/02/06 03:11:24;;;;;;;11.88;3.80;;;4.40;99.90;;;;;;2106563;28;20025;-74
2022/02/06 03:12:27;;;;;;;9.10;3.80;;;4.40;99.90;;;;;;2106898;28;20081;-71
2022/02/06 03:13:37;;;;;;;9.55;3.78;;;4.40;99.90;;;;;;2107034;28;20074;-73
2022/02/06 03:14:47;;;;;;;9.57;3.63;;;4.40;99.90;;;;;;2107027;28;20016;-72
2022/02/06 03:16:05;;;;;;;8.85;3.85;;;4.40;99.90;;;;;;2106162;28;20068;-72
2022/02/06 03:17:05;;;;;;;10.23;3.60;;;4.40;99.90;;;;;;2106284;28;20020;-74
2022/02/06 03:18:14;;;;;;;8.80;3.75;;;4.40;99.90;;;;;;2107018;28;20024;-73
2022/02/06 03:19:17;;;;;;;8.70;3.80;;;4.40;99.90;;;;;;2097886;28;20035;-73
2022/02/06 03:20:20;;;;;;;8.30;3.58;;;4.40;99.90;;;;;;2098412;28;20045;-72
2022/02/06 03:21:24;;;;;;;8.00;3.58;;;4.40;99.90;;;;;;2106337;28;20028;-74
2022/02/06 03:22:34;;;;;;;7.53;3.35;;;4.50;99.90;;;;;;2106159;28;20031;-72
2022/02/06 03:23:39;;;;;;;11.93;4.03;;;4.50;99.90;;;;;;2106417;28;20027;-74
2022/02/06 03:24:43;;;;;;;10.02;3.63;;;4.50;99.90;;;;;;2106301;28;20158;-72
2022/02/06 03:25:55;;;;;;;8.38;3.40;;;4.50;99.90;;;;;;2105898;28;20387;-73
2022/02/06 03:26:56;;;;;;;7.93;3.33;;;4.50;99.90;;;;;;2107026;28;20028;-74
2022/02/06 03:27:57;;;;;;;8.65;3.70;;;4.50;99.90;;;;;;2107308;28;20054;-72
2022/02/06 03:28:58;;;;;;;10.00;3.80;;;4.50;99.90;;;;;;2107417;28;20536;-74
2022/02/06 03:29:58;;;;;;;7.53;3.50;;;4.50;99.90;;;;;;2100508;28;20040;-73
2022/02/06 03:30:59;;;;;;;8.45;3.75;;;4.50;99.90;;;;;;2108562;28;20526;-73
2022/02/06 03:32:01;;;;;;;8.77;3.40;;;4.60;99.90;;;;;;2107220;28;20023;-71
2022/02/06 03:33:02;;;;;;;9.88;3.92;;;4.50;99.90;;;;;;2098206;28;20040;-73
2022/02/06 03:34:04;;;;;;;8.48;3.30;;;4.60;99.90;;;;;;2106444;28;20031;-73
2022/02/06 03:35:05;;;;;;;8.73;3.40;;;4.60;99.90;;;;;;2106380;28;20020;-72
2022/02/06 03:36:05;;;;;;;10.38;3.70;;;4.60;99.90;;;;;;2097615;28;20036;-72
2022/02/06 03:37:06;;;;;;;7.28;3.15;;;4.60;99.90;;;;;;2106198;28;20387;-71
2022/02/06 03:38:07;;;;;;;8.15;3.70;;;4.60;99.90;;;;;;2106396;28;20403;-73
2022/02/06 03:39:09;;;;;;;8.30;3.50;;;4.60;99.90;;;;;;2106851;28;20141;-70
2022/02/06 03:40:19;;;;;;;8.45;3.60;;;4.60;99.90;;;;;;2107121;28;20164;-71
2022/02/06 03:41:24;;;;;;;7.38;3.58;;;4.70;99.90;;;;;;2097751;28;20025;-73
2022/02/06 03:42:32;;;;;;;11.00;3.53;;;4.70;99.90;;;;;;2098506;28;20500;-73
2022/02/06 03:45:08;;;;;;;8.07;3.53;;;4.70;99.90;;;;;;2088838;28;20491;-73
2022/02/06 03:46:16;;;;;;;9.07;3.80;;;4.80;99.90;;;;;;2106279;28;20035;-73
2022/02/06 03:47:23;;;;;;;11.50;3.40;;;4.70;99.90;;;;;;2106041;28;20051;-73
2022/02/06 03:48:31;;;;;;;7.65;3.30;;;4.80;99.90;;;;;;2090116;28;20025;-73
2022/02/06 03:50:15;;;;;;;9.43;3.60;;;4.80;99.90;;;;;;2098565;28;20538;-73
2022/02/06 03:51:00;;;;;;;8.73;3.40;;;4.80;99.90;;;;;;2103398;28;20085;-73
2022/02/06 03:52:00;;;;;;;10.27;3.50;;;4.80;99.90;;;;;;2106489;28;20030;-73
2022/02/06 03:53:01;;;;;;;8.43;3.30;;;4.80;99.90;;;;;;2105808;28;20023;-75
2022/02/06 03:54:03;;;;;;;7.22;3.25;;;4.90;99.90;;;;;;2097345;28;20054;-74
2022/02/06 03:55:04;;;;;;;10.68;3.13;;;4.90;99.90;;;;;;2105891;28;20449;-73
2022/02/06 03:56:07;;;;;;;9.35;3.33;;;4.90;99.90;;;;;;2105035;28;20028;-72
2022/02/06 03:57:08;;;;;;;7.68;3.50;;;4.90;99.90;;;;;;2105959;28;20028;-72
2022/02/06 03:58:08;;;;;;;5.75;2.92;;;4.90;99.90;;;;;;2106496;28;20495;-73
2022/02/06 03:59:09;;;;;;;8.45;3.20;;;4.90;99.90;;;;;;2106558;28;20036;-71
2022/02/06 04:00:10;;;;;;;8.43;3.30;;;4.90;99.90;;;;;;2106755;28;20031;-73
2022/02/06 04:01:11;;;;;;;7.03;3.30;;;5.00;99.90;;;;;;2106962;28;20412;-73
2022/02/06 04:02:11;;;;;;;8.70;3.42;;;5.00;99.90;;;;;;2106110;28;20059;-73
2022/02/06 04:03:12;;;;;;;8.18;3.40;;;5.00;99.90;;;;;;2107091;28;20080;-72
2022/02/06 04:04:12;;;;;;;9.02;3.20;;;5.10;99.90;;;;;;2107132;28;20056;-72
2022/02/06 04:05:14;;;;;;;8.68;3.15;;;5.10;99.90;;;;;;2107455;28;20028;-74
2022/02/06 04:06:15;;;;;;;6.18;3.10;;;5.10;99.90;;;;;;2106498;28;20024;-74
2022/02/06 04:07:15;;;;;;;9.48;3.00;;;5.10;99.90;;;;;;2106460;28;20546;-71
2022/02/06 04:08:18;;;;;;;8.20;3.17;;;5.20;99.90;;;;;;2106971;28;20032;-72
2022/02/06 04:09:29;;;;;;;6.70;3.00;;;5.20;99.90;;;;;;2108191;28;20024;-73
2022/02/06 04:10:35;;;;;;;8.75;3.10;;;5.20;99.90;;;;;;2107677;28;20040;-71
2022/02/06 04:11:47;;;;;;;9.73;3.30;;;5.20;99.90;;;;;;2107425;28;20020;-73
2022/02/06 04:12:50;;;;;;;9.20;3.08;;;5.30;99.90;;;;;;2098418;28;20028;-72
2022/02/06 04:14:16;;;;;;;9.45;3.00;;;5.30;99.90;;;;;;2098056;28;20056;-74
2022/02/06 04:15:23;;;;;;;10.23;3.15;;;5.30;99.90;;;;;;2101695;28;20220;-74
2022/02/06 04:16:36;;;;;;;9.13;3.20;;;5.40;99.90;;;;;;2106256;28;20075;-73
2022/02/06 04:17:45;;;;;;;8.57;2.92;;;5.40;99.90;;;;;;2106381;28;20509;-73
2022/02/06 04:18:52;;;;;;;8.38;2.83;;;5.40;99.90;;;;;;2106440;28;20020;-73
2022/02/06 04:19:55;;;;;;;10.30;3.17;;;5.40;99.90;;;;;;2106693;28;20028;-72
2022/02/06 04:20:59;;;;;;;8.45;2.88;;;5.40;99.90;;;;;;2098688;28;20107;-73
2022/02/06 04:22:00;;;;;;;8.57;3.10;;;5.40;99.90;;;;;;2097652;28;20406;-73
2022/02/06 04:23:00;;;;;;;11.88;3.17;;;5.40;99.90;;;;;;2106435;28;20036;-73
2022/02/06 04:24:01;;;;;;;7.10;3.00;;;5.40;99.90;;;;;;2106911;28;20100;-72
2022/02/06 04:25:02;;;;;;;9.90;3.17;;;5.40;99.90;;;;;;2106130;28;20098;-73
2022/02/06 04:26:02;;;;;;;7.55;2.85;;;5.30;99.90;;;;;;2106116;28;20526;-73
2022/02/06 04:27:06;;;;;;;10.48;3.20;;;5.30;99.90;;;;;;2106901;28;20485;-74
2022/02/06 04:28:06;;;;;;;9.85;3.10;;;5.30;99.90;;;;;;2107354;28;20040;-73
2022/02/06 04:29:07;;;;;;;5.30;2.63;;;5.30;99.90;;;;;;2107729;28;20020;-72
2022/02/06 04:30:09;;;;;;;9.38;2.88;;;5.30;99.90;;;;;;2110040;28;20028;-72
2022/02/06 04:31:09;;;;;;;9.93;2.80;;;5.20;99.90;;;;;;2111119;28;20032;-72
2022/02/06 04:32:10;;;;;;;10.55;3.20;;;5.20;99.90;;;;;;2114186;28;20057;-72
2022/02/06 04:33:11;;;;;;;6.78;3.00;;;5.20;99.90;;;;;;2115479;28;20123;-73
2022/02/06 04:34:11;;;;;;;9.55;3.08;;;5.20;99.90;;;;;;2115483;28;20544;-74
2022/02/06 04:35:17;;;;;;;9.55;3.05;;;5.20;99.90;;;;;;2114344;28;20091;-72
2022/02/06 04:36:21;;;;;;;9.82;2.95;;;5.20;99.90;;;;;;2114053;28;20081;-73
2022/02/06 04:38:42;;;;;;;8.07;3.10;;;5.20;99.90;;;;;;2115151;28;20028;-73
2022/02/06 04:40:05;;;;;;;7.38;3.03;;;5.20;99.90;;;;;;2112818;28;20055;-72
2022/02/06 04:42:52;;;;;;;6.20;3.20;;;5.10;99.90;;;;;;2112017;28;20074;-73
2022/02/06 04:45:27;;;;;;;5.90;2.90;;;5.10;99.90;;;;;;2111135;28;20028;-73
2022/02/06 04:49:37;;;;;;;9.35;2.88;;;5.20;99.90;;;;;;2106111;28;20032;-72
2022/02/06 04:51:05;;;;;;;9.18;3.20;;;5.10;99.90;;;;;;2106396;28;20035;-72
2022/02/06 04:52:00;;;;;;;8.60;2.88;;;5.10;99.90;;;;;;2106194;28;20024;-71
2022/02/06 04:55:50;;;;;;;9.15;2.85;;;5.10;99.90;;;;;;2105126;28;20035;-73
2022/02/06 05:14:15;;;;;;;8.75;3.00;;;5.00;99.90;;;;;;2106115;28;20364;-73
2022/02/06 05:23:47;;;;;;;5.65;2.50;;;5.00;99.90;;;;;;2105792;28;20542;-73
2022/02/06 05:25:55;;;;;;;8.10;2.40;;;5.00;99.90;;;;;;2105800;28;20543;-70
2022/02/06 05:27:12;;;;;;;3.95;2.42;;;5.00;99.90;;;;;;2106510;28;20019;-72
2022/02/06 05:28:29;;;;;;;4.75;2.50;;;5.00;99.90;;;;;;2105878;28;20082;-73
2022/02/06 05:32:23;;;;;;;;;;;5.10;99.90;;;;;;2098109;28;20066;-72
2022/02/06 05:33:23;;;;;;;5.32;2.60;;;5.00;99.90;;;;;;2105419;28;20263;-74
2022/02/06 05:34:24;;;;;;;5.85;2.60;;;5.10;99.90;;;;;;2096725;28;20121;-72
2022/02/06 05:35:27;;;;;;;5.15;2.53;;;5.10;99.90;;;;;;2106490;28;20020;-71
2022/02/06 05:36:27;;;;;;;5.45;2.40;;;5.10;99.90;;;;;;2106512;28;20020;-71
2022/02/06 05:37:28;;;;;;;7.30;2.78;;;5.10;99.90;;;;;;2105940;28;20460;-72
2022/02/06 05:38:29;;;;;;;4.13;2.35;;;5.10;99.90;;;;;;2105656;28;20040;-73
2022/02/06 05:39:29;;;;;;;5.13;2.38;;;5.10;99.90;;;;;;2106284;28;20028;-70
2022/02/06 05:40:30;;;;;;;5.20;2.55;;;5.10;99.90;;;;;;2097571;28;20124;-72
2022/02/06 05:41:31;;;;;;;5.80;2.60;;;5.10;99.90;;;;;;2097699;28;20610;-73
2022/02/06 05:42:31;;;;;;;5.60;2.50;;;5.10;99.90;;;;;;2108361;28;20059;-71
2022/02/06 05:43:32;;;;;;;7.90;2.58;;;5.10;99.90;;;;;;2107290;28;20074;-73
2022/02/06 05:44:35;;;;;;;5.78;2.70;;;5.10;99.90;;;;;;2105699;28;20033;-73
2022/02/06 05:45:36;;;;;;;8.35;2.50;;;5.10;99.90;;;;;;2105202;28;20113;-73
2022/02/06 05:46:36;;;;;;;5.40;2.30;;;5.10;99.90;;;;;;2105333;28;20607;-72
2022/02/06 05:47:37;;;;;;;5.60;2.60;;;5.10;99.90;;;;;;2105770;28;20035;-72
2022/02/06 05:48:38;;;;;;;4.47;2.20;;;5.20;99.90;;;;;;2105706;28;20493;-74
2022/02/06 05:49:38;;;;;;;6.90;2.45;;;5.20;99.90;;;;;;2105350;28;20170;-75
2022/02/06 05:50:42;;;;;;;5.28;2.30;;;5.20;99.90;;;;;;2104858;28;20024;-74
2022/02/06 05:51:44;;;;;;;5.10;2.40;;;5.30;99.90;;;;;;2096580;28;20035;-73
2022/02/06 05:52:45;;;;;;;6.38;2.30;;;5.30;99.90;;;;;;2104972;28;20016;-73
2022/02/06 05:53:46;;;;;;;5.25;2.20;;;5.30;99.90;;;;;;2104988;28;20031;-73
2022/02/06 05:54:47;;;;;;;6.18;2.30;;;5.30;99.90;;;;;;2104862;28;20028;-73
2022/02/06 05:55:48;;;;;;;5.97;2.03;;;5.40;99.90;;;;;;2095927;28;20028;-72
2022/02/06 05:56:48;;;;;;;4.40;2.10;;;5.40;99.90;;;;;;2104858;28;20028;-73
2022/02/06 05:57:49;;;;;;;7.40;2.42;;;5.40;99.90;;;;;;2105331;28;20042;-73
2022/02/06 05:58:49;;;;;;;5.78;2.30;;;5.40;99.90;;;;;;2104711;28;20020;-73
2022/02/06 05:59:50;;;;;;;5.05;2.05;;;5.40;99.90;;;;;;2088190;28;20039;-72
2022/02/06 06:00:51;;;;;;;5.15;2.00;;;5.50;99.90;;;;;;2096638;28;20530;-73
2022/02/06 06:01:52;;;;;;;5.75;2.30;;;5.50;99.90;;;;;;2105076;28;20372;-73
2022/02/06 06:02:52;;;;;;;4.90;2.10;;;5.50;99.90;;;;;;2104938;28;20534;-73
2022/02/06 06:03:53;;;;;;;7.22;2.15;;;5.50;99.90;;;;;;2096382;28;20060;-73
2022/02/06 06:04:54;;;;;;;4.93;2.17;;;5.50;99.90;;;;;;2104770;28;20079;-72
2022/02/06 06:05:54;;;;;;;5.25;2.08;;;5.50;99.90;;;;;;2104336;28;20055;-74
2022/02/06 06:06:55;;;;;;;4.25;2.10;;;5.50;99.90;;;;;;2104806;28;20055;-74
2022/02/06 06:07:56;;;;;;;3.85;2.10;;;5.60;99.90;;;;;;2104786;28;20032;-73
2022/02/06 06:08:56;;;;;;;3.80;1.90;;;5.60;99.90;;;;;;2105109;28;20069;-73
2022/02/06 06:09:57;;;;;;;5.10;2.10;;;5.70;99.90;;;;;;2096513;28;20039;-74
2022/02/06 06:10:57;;;;;;;2.75;1.70;;;5.70;99.90;;;;;;2080017;28;20029;-73
2022/02/06 06:11:58;;;;;;;4.90;1.90;;;5.70;99.90;;;;;;2096253;28;20123;-73
2022/02/06 06:13:00;;;;;;;4.13;1.80;;;5.70;99.90;;;;;;2104936;28;20031;-71
2022/02/06 06:14:01;;;;;;;3.50;1.80;;;5.80;99.90;;;;;;2105257;28;20028;-74
2022/02/06 06:15:02;;;;;;;5.22;2.08;;;5.80;99.90;;;;;;2104699;28;20027;-75
2022/02/06 06:16:05;;;;;;;4.78;1.70;;;5.80;99.90;;;;;;2104496;28;20526;-75
2022/02/06 06:17:05;;;;;;;3.63;1.60;;;5.90;99.90;;;;;;2105076;28;20028;-74
2022/02/06 06:18:08;;;;;;;3.80;1.60;;;5.80;99.90;;;;;;2096389;28;20024;-71
2022/02/06 06:19:10;;;;;;;4.28;1.92;;;5.90;99.90;;;;;;2096781;28;20042;-73
2022/02/06 06:20:15;;;;;;;4.35;1.83;;;5.90;99.90;;;;;;2104954;28;20449;-75
2022/02/06 06:21:18;;;;;;;3.75;1.92;;;5.90;99.90;;;;;;2105547;28;20032;-75
2022/02/06 06:22:20;;;;;;;4.22;1.83;;;5.90;99.90;;;;;;2105113;28;20097;-73
2022/02/06 06:23:23;;;;;;;3.80;1.80;;;5.90;99.90;;;;;;2104792;28;20097;-75
2022/02/06 06:24:26;;;;;;;3.97;1.60;;;5.90;99.90;;;;;;2104682;28;20028;-74
2022/02/06 06:25:34;;;;;;;3.40;1.83;;;5.90;99.90;;;;;;2105239;28;20020;-73
2022/02/06 06:26:38;;;;;;;3.78;1.88;;;5.90;99.90;;;;;;2105705;28;20503;-73
2022/02/06 06:27:39;;;;;;;2.50;1.50;;;5.90;99.90;;;;;;2105812;28;20028;-75
2022/02/06 06:28:40;;;;;;;4.47;1.83;;;5.80;99.90;;;;;;2096670;28;20040;-73
2022/02/06 06:29:40;;;;;;;2.40;1.70;;;5.90;99.90;;;;;;2096984;28;20082;-74
2022/02/06 06:30:41;;;;;;;3.95;1.60;;;5.90;99.90;;;;;;2105304;28;20051;-74
2022/02/06 06:31:41;;;;;;;5.30;1.80;;;5.90;99.90;;;;;;2096638;28;20143;-74
2022/02/06 06:32:42;;;;;;;2.25;1.60;;;6.00;99.90;;;;;;2106795;28;20024;-76
2022/02/06 06:33:43;;;;;;;3.10;1.55;;;6.00;99.90;;;;;;2107599;28;20034;-74
2022/02/06 06:34:43;;;;;;;3.40;1.63;;;6.00;99.90;;;;;;2107747;28;20031;-75
2022/02/06 06:35:48;;;;;;;2.40;1.55;;;6.00;99.90;;;;;;2106994;28;20032;-74
2022/02/06 06:36:50;;;;;;;3.10;1.60;;;6.00;99.90;;;;;;2107006;28;20411;-74
2022/02/06 06:37:52;;;;;;;4.32;1.65;;;6.00;99.90;;;;;;2107317;28;20035;-75
2022/02/06 06:38:54;;;;;;;2.67;1.60;;;6.00;99.90;;;;;;2107315;28;20107;-75
2022/02/06 06:39:55;;;;;;;2.85;1.67;;;6.00;99.90;;;;;;2107621;28;20024;-74
2022/02/06 06:40:55;;;;;;;2.85;1.52;;;6.00;99.90;;;;;;2106686;28;20035;-75
2022/02/06 06:41:56;;;;;;;2.90;1.85;;;5.90;99.90;;;;;;2106812;28;20020;-76
2022/02/06 06:42:57;;;;;;;3.28;1.50;;;6.00;99.90;;;;;;2107520;28;20390;-74
2022/02/06 06:43:57;;;;;;;3.75;1.80;;;5.90;99.90;;;;;;2107503;28;20044;-74
2022/02/06 06:44:58;;;;;;;3.25;1.67;;;5.90;99.90;;;;;;2107311;28;20040;-76
2022/02/06 06:45:58;;;;;;;4.30;1.60;;;5.90;99.90;;;;;;2106862;28;20032;-76
2022/02/06 06:47:00;;;;;;;2.83;1.77;;;5.90;99.90;;;;;;2107223;28;20436;-74
2022/02/06 06:48:00;;;;;;;3.30;1.60;;;5.90;99.90;;;;;;2107283;28;20074;-75
2022/02/06 06:49:01;;;;;;;2.65;1.60;;;5.90;99.90;;;;;;2107305;28;20410;-75
2022/02/06 06:50:04;;;;;;;3.45;1.80;;;5.90;99.90;;;;;;2106257;28;20036;-73
2022/02/06 06:51:06;;;;;;;2.67;1.50;;;5.90;99.90;;;;;;2106467;28;20658;-73
2022/02/06 06:52:08;;;;;;;4.30;1.60;;;5.80;99.90;;;;;;2106687;28;20031;-73
2022/02/06 06:53:11;;;;;;;4.07;1.88;;;5.80;99.90;;;;;;2106406;28;20554;-70
2022/02/06 06:54:16;;;;;;;4.22;1.75;;;5.90;99.90;;;;;;2106405;28;20061;-70
2022/02/06 06:55:20;;;;;;;3.85;1.58;;;5.80;99.90;;;;;;2106670;28;20031;-71
2022/02/06 06:56:42;;;;;;;3.30;1.60;;;5.80;99.90;;;;;;2106511;28;20044;-71
2022/02/06 06:57:50;;;;;;;5.22;1.70;;;5.90;99.90;;;;;;2107054;28;20020;-73
2022/02/06 06:58:52;;;;;;;3.58;1.70;;;5.90;99.90;;;;;;2106666;28;20106;-70
2022/02/06 07:03:15;;;;;;;4.00;1.80;;;5.90;99.90;;;;;;2107528;28;20032;-69
2022/02/06 07:04:16;;;;;;;2.50;1.50;;;5.90;99.90;;;;;;2107497;28;20285;-71
2022/02/06 07:05:17;;;;;;;2.42;1.73;;;5.90;99.90;;;;;;2107729;28;20063;-69
2022/02/06 07:06:17;;;;;;;4.43;1.70;;;6.00;99.90;;;;;;2106979;28;20526;-70
2022/02/06 07:07:18;;;;;;;3.67;1.80;;;6.00;99.90;;;;;;2107119;28;20038;-71
2022/02/06 07:08:19;;;;;;;3.28;1.65;;;6.00;99.90;;;;;;2106918;28;20085;-69
2022/02/06 07:09:20;;;;;;;2.95;1.70;;;6.00;99.90;;;;;;2106948;28;20159;-70
2022/02/06 07:10:21;;;;;;;2.25;1.42;;;6.00;99.90;;;;;;2106958;28;20024;-69
2022/02/06 07:11:21;;;;;;;2.85;1.70;;;6.00;99.90;;;;;;2106105;28;20030;-72
2022/02/06 07:12:22;;;;;;;3.03;1.50;;;6.00;99.90;;;;;;2106035;28;20028;-70
2022/02/06 07:13:23;;;;;;;3.60;1.80;;;6.00;99.90;;;;;;2106880;28;20458;-71
2022/02/06 07:14:25;;;;;;;5.55;1.95;;;6.00;99.90;;;;;;2106377;28;20024;-70
2022/02/06 07:15:26;;;;;;;4.65;1.80;;;5.90;99.90;;;;;;2105794;28;20024;-68
2022/02/06 07:16:26;;;;;;;3.67;1.95;;;6.00;99.90;;;;;;2106663;28;20085;-68
2022/02/06 07:17:27;;;;;;;4.82;1.80;;;5.90;99.90;;;;;;2106939;28;20035;-69
2022/02/06 07:18:28;;;;;;;4.50;1.98;;;5.90;99.90;;;;;;2106301;28;20479;-70
2022/02/06 07:19:28;;;;;;;4.18;1.88;;;5.80;99.90;;;;;;2106203;28;20020;-69
2022/02/06 07:20:32;;;;;;;4.18;1.85;;;5.80;99.90;;;;;;2106041;28;20032;-69
2022/02/06 07:21:38;;;;;;;4.70;1.90;;;5.80;99.90;;;;;;2106025;28;20036;-69
2022/02/06 07:22:39;;;;;;;3.92;1.85;;;5.80;99.90;;;;;;2098910;28;20582;-69
2022/02/06 07:23:40;;;;;;;4.90;2.00;;;5.90;99.90;;;;;;2098218;28;20052;-72
2022/02/06 07:24:42;;;;;;;4.53;1.90;;;5.90;99.90;;;;;;2106347;28;20031;-70
2022/02/06 07:25:47;;;;;;;3.15;1.98;;;5.80;99.90;;;;;;2105892;28;20028;-69
2022/02/06 07:26:51;;;;;;;4.88;2.20;;;5.80;99.90;;;;;;2106770;28;20552;-69
2022/02/06 07:27:52;;;;;;;4.43;2.15;;;5.80;99.90;;;;;;2106018;28;20898;-69